Time;durP1;ratioP1;P1;durP2;ratioP2;P2;SDS_P1;SDS_P2;PMS_P1;PMS_P2;Temp;Humidity;BMP_temperature;BMP_pressure;BME280_temperature;BME280_humidity;BME280_pressure;Samples;Min_cycle;Max_cycle;Signal;HPM_P1;HPM_P2
2022/12/15 00:41:27;;;;;;;26.47;20.47;;;-6.90;99.90;;;;;;2616323;54;20384;-75
2022/12/15 00:47:14;;;;;;;25.73;18.60;;;-6.90;99.90;;;;;;2616573;54;20484;-77
2022/12/15 01:23:36;;;;;;;35.47;20.80;;;-6.30;99.90;;;;;;2616437;54;20415;-77
2022/12/15 01:29:24;;;;;;;38.00;21.10;;;-6.30;99.90;;;;;;2615602;54;20468;-79
2022/12/15 01:35:14;;;;;;;30.40;20.30;;;-5.80;99.90;;;;;;2616098;54;20944;-79
2022/12/15 01:41:05;;;;;;;35.83;23.20;;;-5.70;99.90;;;;;;2616415;47;20391;-77
2022/12/15 01:46:54;;;;;;;38.37;23.23;;;-5.60;99.90;;;;;;2615710;54;20403;-77
2022/12/15 01:52:44;;;;;;;40.83;20.30;;;-5.60;99.90;;;;;;2616340;39;20761;-78
2022/12/15 01:58:32;;;;;;;32.80;20.03;;;-5.50;99.90;;;;;;2616192;39;20794;-78
2022/12/15 02:04:23;;;;;;;37.73;23.40;;;-5.60;99.90;;;;;;2615027;54;20395;-76
2022/12/15 02:10:12;;;;;;;29.80;22.17;;;-5.80;99.90;;;;;;2615990;54;20504;-76
2022/12/15 02:36:03;;;;;;;33.17;22.17;;;-5.20;99.90;;;;;;2619357;54;20515;-80
2022/12/15 03:04:12;;;;;;;31.50;20.87;;;-5.10;99.90;;;;;;2615837;39;20662;-75
2022/12/15 03:10:03;;;;;;;20.03;15.70;;;-5.30;99.90;;;;;;2620599;54;20903;-81
2022/12/15 03:15:51;;;;;;;38.93;24.03;;;-5.10;99.90;;;;;;2620101;54;20387;-78
2022/12/15 03:21:38;;;;;;;32.10;21.00;;;-5.10;99.90;;;;;;2616991;54;20354;-76
2022/12/15 03:27:26;;;;;;;33.57;22.40;;;-5.10;99.90;;;;;;2616948;54;20139;-75
2022/12/15 03:33:14;;;;;;;37.77;23.90;;;-5.20;99.90;;;;;;2617266;54;20138;-75
2022/12/15 03:39:02;;;;;;;33.30;17.90;;;-5.30;99.90;;;;;;2616639;54;20399;-79
2022/12/15 03:44:50;;;;;;;41.90;20.87;;;-5.10;99.90;;;;;;2620442;54;20355;-80
2022/12/15 03:50:38;;;;;;;36.67;22.37;;;-5.10;99.90;;;;;;2618065;54;20162;-79
2022/12/15 03:56:26;;;;;;;33.87;21.90;;;-5.00;99.90;;;;;;2617068;54;20170;-79
2022/12/15 04:02:14;;;;;;;39.83;22.67;;;-5.00;99.90;;;;;;2617857;54;20153;-78
2022/12/15 04:08:02;;;;;;;37.07;21.33;;;-5.10;99.90;;;;;;2618581;54;20623;-78
2022/12/15 04:13:49;;;;;;;42.33;25.60;;;-5.10;99.90;;;;;;2618306;54;20130;-76
2022/12/15 05:32:54;;;;;;;38.47;24.40;;;-6.50;99.90;;;;;;2618380;54;20495;-76
2022/12/15 05:38:42;;;;;;;49.43;24.00;;;-6.50;99.90;;;;;;2618727;54;20126;-77
2022/12/15 05:44:30;;;;;;;35.90;22.03;;;-6.40;99.90;;;;;;2617562;54;20123;-76
2022/12/15 05:50:17;;;;;;;41.90;25.33;;;-5.90;99.90;;;;;;2618728;31;20647;-76
2022/12/15 05:56:08;;;;;;;40.23;23.63;;;-6.50;99.90;;;;;;2619875;31;20843;-76
2022/12/15 06:01:56;;;;;;;44.70;22.67;;;-6.70;99.90;;;;;;2617549;54;20472;-76
2022/12/15 06:07:44;;;;;;;35.53;24.37;;;-6.60;99.90;;;;;;2617989;54;20126;-76
2022/12/15 06:13:33;;;;;;;34.40;22.00;;;-6.90;99.90;;;;;;2616370;46;20173;-77
2022/12/15 06:19:22;;;;;;;34.87;23.83;;;-7.00;99.90;;;;;;2616844;54;20391;-78
2022/12/15 06:25:09;;;;;;;41.37;23.67;;;-6.90;99.90;;;;;;2617363;54;20567;-76
2022/12/15 06:28:00;;;;;;;32.20;22.87;;;-6.80;99.90;;;;;;2617446;54;20895;-75
2022/12/15 06:30:26;;;;;;;32.27;23.80;;;-6.80;99.90;;;;;;2617511;54;20230;-76
2022/12/15 06:36:15;;;;;;;42.10;25.43;;;-6.80;99.90;;;;;;2616680;54;20947;-74
2022/12/15 06:42:03;;;;;;;34.33;23.50;;;-6.60;99.90;;;;;;2617964;54;20355;-76
2022/12/15 06:47:51;;;;;;;37.20;21.87;;;-6.80;99.90;;;;;;2617844;54;20207;-78
2022/12/15 06:53:41;;;;;;;47.63;22.97;;;-6.80;99.90;;;;;;2618016;54;20561;-78
2022/12/15 06:59:29;;;;;;;39.57;24.50;;;-6.90;99.90;;;;;;2618175;54;20382;-77
2022/12/15 07:05:17;;;;;;;37.13;24.50;;;-6.70;99.90;;;;;;2619339;54;20386;-78
2022/12/15 07:11:09;;;;;;;37.87;23.20;;;-6.70;99.90;;;;;;2618595;54;20235;-79
2022/12/15 07:16:56;;;;;;;40.63;24.17;;;-6.50;99.90;;;;;;2618383;54;20394;-75
2022/12/15 07:22:49;;;;;;;41.77;25.77;;;-6.40;99.90;;;;;;2618400;39;20521;-77
2022/12/15 07:32:36;;;;;;;41.07;23.53;;;-6.70;99.90;;;;;;2618008;54;20411;-77
2022/12/15 07:38:25;;;;;;;39.17;24.20;;;-6.90;99.90;;;;;;2618390;54;20382;-77
2022/12/15 07:44:13;;;;;;;41.17;24.90;;;-6.80;99.90;;;;;;2618189;54;20482;-76
2022/12/15 07:50:01;;;;;;;40.60;24.87;;;-6.80;99.90;;;;;;2617604;54;20351;-77
2022/12/15 07:55:57;;;;;;;32.10;22.73;;;-6.70;99.90;;;;;;2618344;54;20399;-77
2022/12/15 08:01:45;;;;;;;38.93;23.23;;;-6.60;99.90;;;;;;2617915;54;20470;-77
2022/12/15 08:07:33;;;;;;;45.77;25.07;;;-6.50;99.90;;;;;;2617724;54;20563;-77
2022/12/15 08:13:20;;;;;;;42.60;25.57;;;-6.30;99.90;;;;;;2617560;54;20118;-78
2022/12/15 08:19:14;;;;;;;32.13;23.53;;;-6.30;99.90;;;;;;2618345;54;20122;-77
2022/12/15 08:25:01;;;;;;;40.73;26.43;;;-4.30;99.90;;;;;;2618402;54;20371;-77
2022/12/15 08:28:04;;;;;;;41.90;26.80;;;-4.70;99.90;;;;;;2617897;47;20420;-78
2022/12/15 08:30:32;;;;;;;33.23;22.87;;;-4.90;99.90;;;;;;2618683;54;20150;-81
2022/12/15 08:36:20;;;;;;;43.13;25.70;;;-5.00;99.90;;;;;;2619046;54;20958;-80
2022/12/15 08:42:07;;;;;;;45.03;28.50;;;-4.70;99.90;;;;;;2620004;54;20138;-80
2022/12/15 08:47:55;;;;;;;43.90;26.87;;;-2.90;99.90;;;;;;2618103;54;20646;-76
2022/12/15 08:53:43;;;;;;;41.03;26.53;;;-3.10;99.90;;;;;;2616519;54;20403;-75
2022/12/15 08:59:30;;;;;;;44.60;29.77;;;-2.00;99.90;;;;;;2617224;54;20150;-76
2022/12/15 09:05:19;;;;;;;40.17;27.50;;;-2.00;99.90;;;;;;2618212;39;20446;-76
2022/12/15 09:11:07;;;;;;;49.43;29.87;;;-1.50;99.90;;;;;;2617485;54;20383;-75
2022/12/15 09:16:54;;;;;;;40.93;28.17;;;-1.50;99.90;;;;;;2617814;39;20739;-76
2022/12/15 09:22:42;;;;;;;44.20;28.47;;;-1.30;99.90;;;;;;2617566;54;20170;-77
2022/12/15 09:32:35;;;;;;;45.13;29.17;;;-0.30;99.90;;;;;;2617351;39;20760;-76
2022/12/15 09:38:23;;;;;;;58.50;34.20;;;2.50;97.20;;;;;;2617400;54;20434;-77
2022/12/15 09:44:16;;;;;;;37.50;30.10;;;3.00;52.10;;;;;;2618064;54;20399;-77
2022/12/15 09:50:09;;;;;;;43.03;32.47;;;2.60;48.90;;;;;;2617969;54;20430;-76
2022/12/15 10:08:54;;;;;;;37.10;28.70;;;4.50;26.70;;;;;;2618169;54;20391;-81
2022/12/15 10:25:26;;;;;;;37.73;28.07;;;3.90;27.40;;;;;;2619376;54;20394;-80
2022/12/15 10:37:29;;;;;;;40.00;28.03;;;4.30;26.40;;;;;;2618699;54;20357;-79
2022/12/15 10:54:17;;;;;;;37.87;29.30;;;4.80;20.00;;;;;;2620107;54;20394;-80
2022/12/15 11:00:14;;;;;;;39.47;30.77;;;5.20;22.10;;;;;;2617981;54;20414;-78
2022/12/15 11:25:22;;;;;;;45.00;29.80;;;7.20;20.20;;;;;;2618441;54;20379;-78
2022/12/15 11:37:45;;;;;;;44.70;33.37;;;6.90;20.60;;;;;;2619490;54;20335;-79
2022/12/15 11:44:11;;;;;;;42.90;30.00;;;5.90;20.30;;;;;;2619234;54;20374;-78
2022/12/15 11:56:38;;;;;;;41.10;31.93;;;6.90;18.20;;;;;;2619145;54;20403;-79
2022/12/15 12:15:50;;;;;;;47.33;31.80;;;8.20;17.40;;;;;;2618126;46;20391;-79
2022/12/15 12:21:49;;;;;;;45.00;32.77;;;7.70;18.10;;;;;;2618187;54;20406;-78
2022/12/15 12:27:48;;;;;;;44.00;30.47;;;8.10;17.60;;;;;;2617817;54;20391;-78
2022/12/15 12:33:41;;;;;;;34.80;30.40;;;8.90;17.90;;;;;;2617206;54;20387;-79
2022/12/15 12:39:31;;;;;;;38.90;32.50;;;9.00;16.50;;;;;;2617229;54;20407;-79
2022/12/15 12:51:54;;;;;;;35.60;30.40;;;8.20;17.20;;;;;;2617051;54;20425;-83
2022/12/15 12:57:42;;;;;;;37.47;30.93;;;8.60;18.40;;;;;;2618351;54;20527;-82
2022/12/15 13:03:30;;;;;;;41.53;33.40;;;7.60;15.80;;;;;;2616970;54;20415;-78
2022/12/15 13:09:18;;;;;;;38.80;31.43;;;8.10;19.60;;;;;;2616461;54;20635;-79
2022/12/15 13:21:45;;;;;;;57.37;36.50;;;5.50;20.90;;;;;;2616687;54;20374;-76
2022/12/15 13:27:39;;;;;;;55.13;37.50;;;6.50;21.20;;;;;;2616312;54;20398;-77
2022/12/15 13:33:28;;;;;;;43.93;33.13;;;5.70;26.80;;;;;;2615902;54;20449;-77
2022/12/15 13:36:43;;;;;;;53.30;35.70;;;6.10;28.90;;;;;;2616045;54;20458;-77
2022/12/15 13:42:33;;;;;;;44.23;30.93;;;5.70;24.00;;;;;;2616461;54;20407;-77
2022/12/15 13:48:28;;;;;;;41.83;31.90;;;6.30;22.20;;;;;;2616245;54;20446;-79
2022/12/15 13:54:23;;;;;;;36.93;29.83;;;6.80;22.60;;;;;;2615905;46;20422;-79
2022/12/15 14:00:17;;;;;;;38.80;30.20;;;7.90;19.30;;;;;;2617308;54;20391;-77
2022/12/15 14:12:19;;;;;;;46.93;29.83;;;2.60;44.00;;;;;;2616546;39;20745;-78
2022/12/15 14:24:48;;;;;;;41.50;32.67;;;2.20;50.80;;;;;;2616277;54;20978;-77
2022/12/15 14:30:36;;;;;;;44.07;34.77;;;1.50;68.00;;;;;;2616983;54;20391;-79
2022/12/15 14:36:24;;;;;;;61.50;35.13;;;1.20;76.20;;;;;;2615436;54;20398;-78
2022/12/15 15:02:19;;;;;;;50.90;34.73;;;-0.10;99.90;;;;;;2614950;54;20899;-79
2022/12/15 15:14:27;;;;;;;64.43;38.27;;;-0.60;99.90;;;;;;2615696;54;20994;-81
2022/12/15 15:20:34;;;;;;;55.57;34.20;;;-0.90;99.90;;;;;;2616708;54;20415;-82
2022/12/15 15:26:24;;;;;;;57.43;34.90;;;-1.10;99.90;;;;;;2618292;54;20413;-80
2022/12/15 15:38:58;;;;;;;56.50;37.10;;;-1.60;99.90;;;;;;2617812;54;20370;-82
2022/12/15 15:44:45;;;;;;;76.43;37.07;;;-1.90;99.90;;;;;;2617256;54;20367;-82
2022/12/15 15:50:34;;;;;;;69.63;41.20;;;-2.00;99.90;;;;;;2618053;54;20394;-80
2022/12/15 15:56:22;;;;;;;76.60;39.70;;;-2.50;99.90;;;;;;2617825;54;20558;-80
2022/12/15 16:02:12;;;;;;;56.60;35.83;;;-2.50;99.90;;;;;;2617672;54;20409;-82
2022/12/15 16:08:00;;;;;;;66.43;36.07;;;-2.60;99.90;;;;;;2618063;39;20743;-81
2022/12/15 16:13:48;;;;;;;62.13;37.30;;;-2.60;99.90;;;;;;2617136;54;20411;-81
2022/12/15 16:19:36;;;;;;;63.10;38.17;;;-2.70;99.90;;;;;;2617409;54;20134;-82
2022/12/15 16:25:24;;;;;;;69.67;39.57;;;-2.80;99.90;;;;;;2617557;54;20133;-81
2022/12/15 16:37:48;;;;;;;72.80;38.77;;;-3.00;99.90;;;;;;2617412;54;20391;-82
2022/12/15 16:43:36;;;;;;;57.07;32.93;;;-2.90;99.90;;;;;;2617362;54;20154;-82
2022/12/15 16:49:24;;;;;;;65.83;35.77;;;-3.30;99.90;;;;;;2617067;54;20143;-82
2022/12/15 16:55:25;;;;;;;74.33;36.17;;;-3.30;99.90;;;;;;2617748;54;20130;-82
2022/12/15 17:01:14;;;;;;;68.43;37.37;;;-3.20;99.90;;;;;;2615551;54;20954;-77
2022/12/15 17:07:02;;;;;;;66.03;37.30;;;-3.30;99.90;;;;;;2616504;54;20390;-81
2022/12/15 17:12:52;;;;;;;74.20;39.80;;;-3.50;99.90;;;;;;2617430;54;20430;-81
2022/12/15 17:18:40;;;;;;;56.30;35.73;;;-3.60;99.90;;;;;;2616933;54;20382;-79
2022/12/15 17:24:28;;;;;;;73.70;39.43;;;-3.70;99.90;;;;;;2616432;54;20391;-78
2022/12/15 17:30:16;;;;;;;61.67;37.90;;;-3.90;99.90;;;;;;2616728;54;20133;-78
2022/12/15 17:42:21;;;;;;;68.90;41.10;;;-4.10;99.90;;;;;;2616632;54;20427;-81
2022/12/15 17:48:09;;;;;;;66.43;37.20;;;-4.10;99.90;;;;;;2617738;54;20223;-82
2022/12/15 17:53:57;;;;;;;67.13;40.03;;;-4.10;99.90;;;;;;2617604;54;20415;-81
2022/12/15 17:59:45;;;;;;;72.43;38.07;;;-4.20;99.90;;;;;;2617379;39;20735;-77
2022/12/15 18:05:33;;;;;;;79.00;38.50;;;-3.90;99.90;;;;;;2616401;54;20394;-78
2022/12/15 18:11:20;;;;;;;74.10;40.27;;;-4.20;99.90;;;;;;2616068;54;20135;-77
2022/12/15 18:17:09;;;;;;;77.37;37.17;;;-4.30;99.90;;;;;;2616516;54;20118;-79
2022/12/15 18:22:57;;;;;;;62.00;36.17;;;-4.30;99.90;;;;;;2615577;54;20367;-78
2022/12/15 18:28:45;;;;;;;69.87;40.20;;;-4.40;99.90;;;;;;2617162;54;20118;-82
2022/12/15 18:34:32;;;;;;;73.53;37.60;;;-4.40;99.90;;;;;;2617158;54;20205;-83
2022/12/15 18:40:25;;;;;;;57.87;37.60;;;-4.20;99.90;;;;;;2616616;54;20615;-78
2022/12/15 18:46:14;;;;;;;73.63;40.40;;;-4.70;99.90;;;;;;2616312;54;20407;-77
2022/12/15 18:52:02;;;;;;;67.67;40.67;;;-4.80;99.90;;;;;;2616597;39;20822;-78
2022/12/15 18:57:51;;;;;;;85.07;38.07;;;-4.90;99.90;;;;;;2617068;39;20508;-79
2022/12/15 19:03:39;;;;;;;62.53;36.83;;;-5.10;99.90;;;;;;2616238;54;20402;-78
2022/12/15 19:09:28;;;;;;;71.67;37.83;;;-5.20;99.90;;;;;;2615561;54;20403;-78
2022/12/15 19:15:17;;;;;;;59.40;37.70;;;-5.10;99.90;;;;;;2617267;54;20410;-77
2022/12/15 19:32:04;;;;;;;61.63;33.13;;;-5.10;99.90;;;;;;2616083;54;20338;-77
2022/12/15 19:37:55;;;;;;;66.53;37.97;;;-5.00;99.90;;;;;;2616572;54;20418;-78
2022/12/15 19:43:44;;;;;;;67.20;36.80;;;-5.40;99.90;;;;;;2616440;54;20382;-76
2022/12/15 19:49:32;;;;;;;66.67;38.90;;;-5.40;99.90;;;;;;2616948;54;20384;-79
2022/12/15 19:55:25;;;;;;;75.90;38.40;;;-5.40;99.90;;;;;;2616560;54;20154;-78
2022/12/15 20:01:16;;;;;;;58.87;36.67;;;-5.20;99.90;;;;;;2616531;54;20383;-78
2022/12/15 20:07:04;;;;;;;75.27;40.10;;;-5.30;99.90;;;;;;2617343;54;20394;-77
2022/12/15 20:12:52;;;;;;;69.20;37.27;;;-5.10;99.90;;;;;;2617345;46;20675;-80
2022/12/15 20:18:40;;;;;;;64.77;37.60;;;-5.00;99.90;;;;;;2616787;54;20378;-78
2022/12/15 20:21:43;;;;;;;68.40;36.70;;;-4.90;99.90;;;;;;2615971;54;20411;-77
2022/12/15 20:24:14;;;;;;;69.37;36.97;;;-5.00;99.90;;;;;;2613598;54;20165;-77
2022/12/15 20:30:02;;;;;;;67.13;37.50;;;-5.40;99.90;;;;;;2616121;54;20516;-77
2022/12/15 20:39:28;;;;;;;67.20;35.00;;;-5.60;99.90;;;;;;2617779;54;21452;-82
2022/12/15 20:45:18;;;;;;;59.10;36.87;;;-5.70;99.90;;;;;;2617438;54;21065;-80
2022/12/15 20:51:07;;;;;;;68.83;38.70;;;-5.40;99.90;;;;;;2616759;54;20466;-80
2022/12/15 20:56:55;;;;;;;70.27;38.87;;;-5.40;99.90;;;;;;2616554;54;20380;-79
2022/12/15 21:02:43;;;;;;;56.57;33.77;;;-5.40;99.90;;;;;;2616671;54;20150;-77
2022/12/15 21:08:31;;;;;;;55.80;34.30;;;-5.50;99.90;;;;;;2616881;54;20392;-79
2022/12/15 21:14:22;;;;;;;59.70;36.80;;;-5.70;99.90;;;;;;2618041;54;20470;-80
2022/12/15 21:20:11;;;;;;;70.53;34.17;;;-5.80;99.90;;;;;;2617164;54;20378;-82
2022/12/15 21:26:01;;;;;;;62.40;34.37;;;-5.80;99.90;;;;;;2617148;54;21015;-79
2022/12/15 21:31:49;;;;;;;49.07;31.37;;;-6.00;99.90;;;;;;2616340;54;20469;-77
2022/12/15 21:34:44;;;;;;;63.33;35.60;;;-5.90;99.90;;;;;;2615419;47;20429;-77
2022/12/15 21:37:29;;;;;;;54.80;36.77;;;-6.00;99.90;;;;;;2617781;39;20862;-79
2022/12/15 21:43:19;;;;;;;61.53;34.83;;;-6.10;99.90;;;;;;2617239;54;20402;-78
2022/12/15 21:49:14;;;;;;;61.60;37.53;;;-5.90;99.90;;;;;;2616241;54;20582;-78
2022/12/15 21:55:01;;;;;;;59.40;35.70;;;-6.20;99.90;;;;;;2617543;39;20765;-80
2022/12/15 22:00:51;;;;;;;59.10;35.00;;;-6.10;99.90;;;;;;2617155;54;20130;-78
2022/12/15 22:06:39;;;;;;;66.77;37.10;;;-5.90;99.90;;;;;;2615979;54;20382;-77
2022/12/15 22:12:26;;;;;;;53.80;33.60;;;-6.00;99.90;;;;;;2616626;54;20126;-78
2022/12/15 22:18:18;;;;;;;67.23;38.30;;;-6.10;99.90;;;;;;2616648;54;20123;-79
2022/12/15 22:24:08;;;;;;;63.43;36.87;;;-6.30;99.90;;;;;;2616171;54;20370;-80
2022/12/15 22:29:56;;;;;;;66.43;36.63;;;-6.40;99.90;;;;;;2615937;54;20398;-78
2022/12/15 22:45:58;;;;;;;70.83;37.50;;;-6.20;99.90;;;;;;2615720;54;20464;-79
2022/12/15 22:51:46;;;;;;;66.23;37.60;;;-6.40;99.90;;;;;;2615081;54;20471;-77
2022/12/15 22:57:33;;;;;;;56.77;34.70;;;-6.40;99.90;;;;;;2615499;54;20379;-78
2022/12/15 23:03:21;;;;;;;72.17;38.83;;;-6.50;99.90;;;;;;2616386;54;20154;-78
2022/12/15 23:09:10;;;;;;;68.27;37.93;;;-6.50;99.90;;;;;;2617573;54;20433;-80
2022/12/15 23:21:04;;;;;;;63.63;34.90;;;-6.40;99.90;;;;;;2619776;54;20354;-81
2022/12/15 23:26:52;;;;;;;73.77;38.57;;;-6.60;99.90;;;;;;2619571;54;20119;-83
2022/12/15 23:32:40;;;;;;;61.10;34.87;;;-6.40;99.90;;;;;;2617027;54;20139;-78
2022/12/15 23:38:28;;;;;;;59.30;35.47;;;-6.10;99.90;;;;;;2617209;54;20146;-78
2022/12/15 23:44:15;;;;;;;60.23;35.43;;;-6.20;99.90;;;;;;2616644;54;20411;-77
2022/12/15 23:50:04;;;;;;;60.40;34.90;;;-6.50;99.90;;;;;;2617066;54;20130;-77
2022/12/15 23:55:51;;;;;;;58.40;34.73;;;-6.70;99.90;;;;;;2617080;39;20430;-77
